Airfield :
LOGIN :

Register | Disclaimer

   EN    FR    IT 

 










Legend :    VFR   Marginal VFR   IFR   Intensive IFR   Very Intensive IFR
Visi :
Ceiling :
>= 8 km
>= 3000ft
5 to 8 km
1000 to 3000 ft
1500m to 5 km
500 to 1000 ft
800 to 1500m
200 to 500 ft
< 800m
< 200 ft
Symbols :   Thunderstorms  Fog  Heavy snow  Heavy precipitations  Wind > 20 kt
SIGMETs :     Misc.  Thunderstorms  Icing  Turbulence  Mountain Waves  Volcanic Ashes







- Airport Elevation : 1682 ft
- IATA code : VIT


LEVT - Vitoria Gasteiz

CURRENT METAR :
  • 130630Z 19008KT 160V230 9999 SCT020 BKN030 09/07 Q1006

EXPIRED METARs :
  • 130600Z 20007KT 160V220 9999 SCT020 BKN030 09/07 Q1006
  • 130530Z 19005KT 160V220 9999 SCT020 BKN030 08/07 Q1006
  • 130500Z 20003KT 170V240 9000 -RA SCT020 BKN030 08/07 Q1007
  • 130430Z 25005KT 200V280 7000 RA SCT020 BKN030 09/07 Q1007
  • 130400Z 24005KT 200V280 8000 -RA FEW020 BKN030 09/07 Q1008

TAF TAF LEVT
Valid from the 13 at 06:00 until the 14 at 06:00 UTC


130500Z 1306/1406 22009KT 9999 SCT020 BKN030 TX09/1312Z TN02/1406Z
PROB40
TEMPO 1306/1308 22015G25KT
BECMG 1306/1309 31010KT
TEMPO 1312/1324 31015G25KT
TEMPO 1306/1312 3000 RA BKN014
No reported NOTAMs for that airfield.
3 SIGMETs reported for the Madrid FIR (LECM) :
 
Severe turbulence
LECM SIGMET 3 VALID 130540/130800 LEVA
LECM MADRID UIR SEV TURB OBS AT 0540Z WI N4340 W00211 - N4247 W00209 - N4243 W00113 - N4309 W00124 - N4340 W00211 FL360/380 STNR NC=
Severe turbulence
LECM SIGMET 2 VALID 130600/131000 LEVA
LECM MADRID FIR/UIR SEV TURB FCST W OF LINE N3757 W00501 - N3554 W00417 FL240/340 MOV E NC=
Severe turbulence
LECM SIGMET 1 VALID 130400/130800 LEVA
LECM MADRID FIR SEV TURB FCST W OF LINE N4435 W006 - N3551 W00506 SFC/FL220 MOV E NC=



MET'MAP, your aeronautical weather chart ! - Copyright ORBIFLY December 2007 - Disclaimer

ORBIFLY MET'MAP TEAM :

Programming & Development : Alexandra Zaïnal
Concept & Development : Baudouin d'Aumeries
Co-Development & Prog : Marc-Olivier Méhu
Technical & hardware support : Manuel Goepfert

Contact : metmap@orbifly.com




SOURCES & CREDITS :

   NOAA